Pagrindinis puslapis
METAR-TAF:

METAR-TAF

Oro uostai :

Meno Sala,

platuma: 54-05N, ilguma: 004-38W, Aukštis: 17 m

Dabartinis oras

Ataskaita buvo paskelbta 41 minutes, ne 20:50 UTC
Vėjas 4 kt iš Šiaurės Vakarų
Temperatūra 0°C
Drėgmė 80%
Slėgis 996 hPa
Matomumas 10 km arba daugiau
Mažai debesys ne aukštis 2500 ft

METAR: EGNS 232050Z 31004KT 9999 FEW025 M00/M03 Q0996

Laikas: 21:31 (21:31 UTC)

Prognozė

Ataskaita buvo paskelbta 10 valandos ir 31 minutes, ne 11:00 UTC
Prognozė galioja nuo 23 metu 12 UTC su 23 metu 14 UTC
Vėjas 12 kt iš Šiaurės Vakarų
Matomumas 10 km arba daugiau
Išsisklaidę debesys ne aukštis 1600 ft
Tikimybė 30% :
Laikinai
nuo 23 metu 12 UTC su 23 metu 14 UTC
Matomumas: 5000 m
Su prošvaistėmis ne aukštis 1200 ft, Liūtiniai kamuoliniai debesys.
lietus, sniegas

TAF: EGNS 231100Z 2312/2314 31012KT 9999 SCT016 PROB30 TEMPO 2312/2314 5000 SHRASN BKN012CB

Orai ataskaitas ir orų prognozės (METAR, TAF).

turimą stotys yra geltonos ir raudonos taškus žemėlapyje.

Perkelti pele per norėdami pamatyti stoties vardą.

Tada spustelėkite, norėdami matyti oro stebėjimo ir prognozės.

Norėdami pakeisti žemėlapį: spustelėkite ant žalios mygtukų su juodo kryžiaus žemyn,; žalią mygtuką su brūkšneliu, jei norite nutolinti; arba žalių rodyklių gretimoms žemėlapius.


METAR-TAF: